createdAt,value
2023-04-09T00:00:30.885Z,141.6923
2023-04-09T00:01:32.527Z,139.0769
2023-04-09T00:02:34.134Z,138.3846
2023-04-09T00:03:35.975Z,134.4615
2023-04-09T00:04:37.512Z,138.0000
2023-04-09T00:05:39.045Z,136.9231
2023-04-09T00:06:40.729Z,132.9231
2023-04-09T00:07:44.498Z,135.0000
2023-04-09T00:08:44.001Z,130.0769
2023-04-09T00:09:45.795Z,127.3846
2023-04-09T00:10:47.419Z,126.4615
2023-04-09T00:11:49.014Z,127.0769
2023-04-09T00:12:50.658Z,128.0769
2023-04-09T00:13:52.355Z,123.0769
2023-04-09T00:14:53.949Z,127.4615
2023-04-09T00:15:55.639Z,121.9231
2023-04-09T00:16:57.327Z,122.6154
2023-04-09T00:17:58.941Z,123.3077
2023-04-09T00:19:00.566Z,123.9231
2023-04-09T00:20:02.230Z,121.7692
2023-04-09T00:21:03.874Z,119.8462
2023-04-09T00:22:05.538Z,118.5385
2023-04-09T00:23:07.217Z,121.2308
2023-04-09T00:24:08.741Z,118.1538
2023-04-09T00:25:10.451Z,119.6154
2023-04-09T00:26:12.178Z,115.6923
2023-04-09T00:27:13.870Z,114.6154
2023-04-09T00:28:15.471Z,117.5385
2023-04-09T00:29:17.208Z,114.0000
2023-04-09T00:30:18.800Z,111.5385
2023-04-09T00:31:20.877Z,110.9231
2023-04-09T00:32:22.075Z,113.1538
2023-04-09T00:33:23.652Z,114.0000
2023-04-09T00:34:25.336Z,109.6923
2023-04-09T00:35:26.974Z,106.0000
2023-04-09T00:36:28.728Z,112.5385
2023-04-09T00:37:30.315Z,114.1538
2023-04-09T00:38:31.999Z,111.3846
2023-04-09T00:39:33.621Z,109.0769
2023-04-09T00:40:35.255Z,109.1538
2023-04-09T00:41:37.009Z,107.3077
2023-04-09T00:42:38.590Z,108.4615
2023-04-09T00:43:40.274Z,105.3846
2023-04-09T00:44:41.810Z,105.5385
2023-04-09T00:45:43.536Z,107.0769
2023-04-09T00:46:45.106Z,105.9231
2023-04-09T00:47:47.383Z,104.7692
2023-04-09T00:48:48.510Z,101.7692
2023-04-09T00:49:50.179Z,104.1538
2023-04-09T00:50:51.748Z,106.6154
2023-04-09T00:51:53.387Z,105.3077
2023-04-09T00:52:55.154Z,103.5385
2023-04-09T00:53:56.788Z,102.4615
2023-04-09T00:54:58.439Z,103.0000
2023-04-09T00:56:00.031Z,98.0769
2023-04-09T00:57:01.678Z,100.6923
2023-04-09T00:58:03.432Z,101.4615
2023-04-09T00:59:05.370Z,100.8462
2023-04-09T01:00:06.718Z,96.6923
2023-04-09T01:01:08.398Z,94.8462
2023-04-09T01:02:10.922Z,96.6154
2023-04-09T01:03:12.029Z,107.3846
2023-04-09T01:04:13.346Z,141.5385
2023-04-09T01:05:14.928Z,143.6923
2023-04-09T01:06:16.538Z,144.8462
2023-04-09T01:07:18.281Z,140.4615
2023-04-09T01:08:20.103Z,140.1538
2023-04-09T01:09:21.565Z,136.0769
2023-04-09T01:10:23.206Z,133.4615
2023-04-09T01:11:24.982Z,131.9231
2023-04-09T01:12:26.511Z,130.8462
2023-04-09T01:13:28.223Z,131.4615
2023-04-09T01:14:29.940Z,131.3077
2023-04-09T01:15:31.524Z,128.4615
2023-04-09T01:16:33.136Z,125.3077
2023-04-09T01:17:34.892Z,122.8462
2023-04-09T01:18:36.505Z,120.8462
2023-04-09T01:19:38.124Z,121.6923
2023-04-09T01:20:39.828Z,122.9231
2023-04-09T01:21:41.423Z,119.3846
2023-04-09T01:22:43.078Z,122.0769
2023-04-09T01:23:44.791Z,117.0769
2023-04-09T01:24:46.398Z,115.6154
2023-04-09T01:25:48.068Z,114.0000
2023-04-09T01:26:49.701Z,117.0769
2023-04-09T01:27:51.345Z,116.3846
2023-04-09T01:28:53.459Z,113.6923
2023-04-09T01:29:54.675Z,112.6154
2023-04-09T01:30:56.455Z,108.5385
2023-04-09T01:31:57.966Z,107.9231
2023-04-09T01:33:00.036Z,107.1538
2023-04-09T01:34:01.414Z,105.7692
2023-04-09T01:35:02.905Z,106.0769
2023-04-09T01:36:04.719Z,107.9231
2023-04-09T01:37:06.294Z,107.2308
2023-04-09T01:38:07.898Z,100.5385
2023-04-09T01:39:09.611Z,102.1538
2023-04-09T01:40:11.340Z,102.8462
2023-04-09T01:41:12.763Z,100.1538
2023-04-09T01:42:14.450Z,102.9231
2023-04-09T01:43:16.089Z,99.5385
2023-04-09T01:44:17.733Z,102.2308
2023-04-09T01:45:19.460Z,101.4615
2023-04-09T01:46:21.134Z,104.0000
2023-04-09T01:47:22.701Z,101.1538
2023-04-09T01:48:24.355Z,98.3077
2023-04-09T01:49:26.155Z,98.3846
2023-04-09T01:50:27.827Z,96.5385
2023-04-09T01:51:29.362Z,98.3077
2023-04-09T01:52:31.778Z,100.0000
2023-04-09T01:53:32.756Z,94.1538
2023-04-09T01:54:34.509Z,103.0769
2023-04-09T01:55:36.046Z,97.0769
2023-04-09T01:56:37.760Z,92.0000
2023-04-09T01:57:39.326Z,92.3846
2023-04-09T01:58:41.040Z,90.7692
2023-04-09T01:59:42.646Z,92.0000
2023-04-09T02:00:45.286Z,94.3077
2023-04-09T02:01:46.966Z,93.4615
2023-04-09T02:02:47.749Z,94.3077
2023-04-09T02:03:49.389Z,88.9231
2023-04-09T02:04:51.165Z,89.3846
2023-04-09T02:05:52.939Z,90.3846
2023-04-09T02:06:54.257Z,90.0769
2023-04-09T02:07:55.895Z,87.2308
2023-04-09T02:08:57.613Z,91.6923
2023-04-09T02:09:59.283Z,118.6154
2023-04-09T02:11:00.840Z,141.6154
2023-04-09T02:12:02.542Z,140.8462
2023-04-09T02:13:04.157Z,139.7692
2023-04-09T02:14:05.990Z,136.6154
2023-04-09T02:15:07.595Z,136.5385
2023-04-09T02:16:09.178Z,132.9231
2023-04-09T02:17:10.796Z,125.2308
2023-04-09T02:18:12.451Z,126.8462
2023-04-09T02:19:14.076Z,125.7692
2023-04-09T02:20:15.820Z,123.9231
2023-04-09T02:21:17.353Z,125.0000
2023-04-09T02:22:19.019Z,121.9231
2023-04-09T02:23:20.728Z,118.3077
2023-04-09T02:24:22.447Z,117.0769
2023-04-09T02:25:24.078Z,115.9231
2023-04-09T02:26:25.642Z,117.0000
2023-04-09T02:27:27.406Z,114.8462
2023-04-09T02:28:29.049Z,116.1538
2023-04-09T02:29:30.649Z,116.8462
2023-04-09T02:30:32.343Z,111.6923
2023-04-09T02:31:34.023Z,105.7692
2023-04-09T02:32:35.744Z,106.5385
2023-04-09T02:33:37.353Z,103.9231
2023-04-09T02:34:39.059Z,110.7692
2023-04-09T02:35:40.670Z,107.5385
2023-04-09T02:36:42.334Z,107.2308
2023-04-09T02:37:44.014Z,102.0000
2023-04-09T02:38:45.604Z,100.4615
2023-04-09T02:39:47.406Z,97.1538
2023-04-09T02:40:48.948Z,99.0000
2023-04-09T02:41:50.642Z,99.8462
2023-04-09T02:42:52.172Z,101.5385
2023-04-09T02:43:53.910Z,96.0000
2023-04-09T02:44:55.577Z,95.7692
2023-04-09T02:45:57.459Z,94.3846
2023-04-09T02:46:58.780Z,92.8462
2023-04-09T02:48:00.501Z,94.3077
2023-04-09T02:49:02.858Z,95.2308
2023-04-09T02:50:03.897Z,94.1538
2023-04-09T02:51:05.597Z,87.6154
2023-04-09T02:52:07.114Z,88.0769
2023-04-09T02:53:08.894Z,90.9231
2023-04-09T02:54:10.412Z,85.1538
2023-04-09T02:55:12.069Z,83.9231
2023-04-09T02:56:13.815Z,83.4615
2023-04-09T02:57:15.261Z,85.4615
2023-04-09T02:58:16.992Z,86.2308
2023-04-09T02:59:18.727Z,89.0769
2023-04-09T03:00:20.348Z,88.7692
2023-04-09T03:01:22.135Z,94.7692
2023-04-09T03:02:23.818Z,93.0000
2023-04-09T03:03:26.040Z,96.7692
2023-04-09T03:04:26.980Z,91.4615
2023-04-09T03:05:28.520Z,93.3846
2023-04-09T03:06:30.294Z,94.4615
2023-04-09T03:07:31.856Z,93.2308
2023-04-09T03:08:33.504Z,92.8462
2023-04-09T03:09:35.157Z,90.0769
2023-04-09T03:10:36.820Z,91.5385
2023-04-09T03:11:38.536Z,89.5385
2023-04-09T03:12:40.128Z,93.5385
2023-04-09T03:13:41.820Z,89.6923
2023-04-09T03:14:43.483Z,90.3077
2023-04-09T03:15:45.125Z,91.8462
2023-04-09T03:16:46.781Z,93.6923
2023-04-09T03:17:48.433Z,97.0000
2023-04-09T03:18:50.256Z,88.8462
2023-04-09T03:19:51.686Z,89.6923
2023-04-09T03:20:53.341Z,91.6923
2023-04-09T03:21:55.031Z,89.9231
2023-04-09T03:22:56.638Z,92.1538
2023-04-09T03:23:58.321Z,91.8462
2023-04-09T03:24:59.983Z,91.6154
2023-04-09T03:26:01.616Z,88.3077
2023-04-09T03:27:03.362Z,89.0000
2023-04-09T03:28:04.876Z,90.6154
2023-04-09T03:29:06.616Z,92.0769
2023-04-09T03:30:08.235Z,91.0000
2023-04-09T03:31:09.964Z,92.9231
2023-04-09T03:32:11.545Z,84.1538
2023-04-09T03:33:13.187Z,88.0000
2023-04-09T03:34:14.836Z,88.5385
2023-04-09T03:35:16.464Z,85.6923
2023-04-09T03:36:18.091Z,90.1538
2023-04-09T03:37:19.818Z,92.4615
2023-04-09T03:38:21.408Z,91.7692
2023-04-09T03:39:23.121Z,88.8462
2023-04-09T03:40:24.740Z,89.6154
2023-04-09T03:41:26.469Z,88.0769
2023-04-09T03:42:27.998Z,83.6923
2023-04-09T03:43:29.703Z,89.0769
2023-04-09T03:44:31.954Z,84.9231
2023-04-09T03:45:33.017Z,89.4615
2023-04-09T03:46:34.750Z,93.2308
2023-04-09T03:47:36.354Z,89.3077
2023-04-09T03:48:38.009Z,93.6154
2023-04-09T03:49:39.614Z,88.5385
2023-04-09T03:50:41.252Z,91.0769
2023-04-09T03:51:42.937Z,91.9231
2023-04-09T03:52:44.651Z,85.8462
2023-04-09T03:53:46.335Z,88.8462
2023-04-09T03:54:47.962Z,87.9231
2023-04-09T03:55:49.626Z,90.0769
2023-04-09T03:56:52.068Z,87.1538
2023-04-09T03:57:52.934Z,87.6923
2023-04-09T03:58:54.881Z,92.3077
2023-04-09T03:59:56.248Z,90.3077
2023-04-09T04:00:57.769Z,86.6923
2023-04-09T04:01:59.549Z,87.0769
2023-04-09T04:03:01.372Z,89.5385
2023-04-09T04:04:02.941Z,91.8462
2023-04-09T04:05:04.493Z,91.1538
2023-04-09T04:06:06.160Z,95.2308
2023-04-09T04:07:07.804Z,89.0769
2023-04-09T04:08:09.423Z,91.0769
2023-04-09T04:09:11.023Z,90.0769
2023-04-09T04:10:12.794Z,92.6923
2023-04-09T04:11:14.374Z,93.6154
2023-04-09T04:12:16.020Z,91.6923
2023-04-09T04:13:17.707Z,89.8462
2023-04-09T04:14:19.355Z,91.3077
2023-04-09T04:15:21.044Z,89.6154
2023-04-09T04:16:22.697Z,93.2308
2023-04-09T04:17:24.341Z,94.3846
2023-04-09T04:18:25.957Z,94.1538
2023-04-09T04:19:27.614Z,97.7692
2023-04-09T04:20:29.244Z,93.3077
2023-04-09T04:21:30.919Z,95.4615
2023-04-09T04:22:32.602Z,95.9231
2023-04-09T04:23:34.250Z,91.3077
2023-04-09T04:24:35.901Z,96.5385
2023-04-09T04:25:37.541Z,95.5385
2023-04-09T04:26:39.229Z,93.7692
2023-04-09T04:27:40.893Z,91.5385
2023-04-09T04:28:42.556Z,95.3077
2023-04-09T04:29:44.141Z,93.0000
2023-04-09T04:30:45.867Z,95.7692
2023-04-09T04:31:47.497Z,95.7692
2023-04-09T04:32:49.097Z,96.3077
2023-04-09T04:33:50.782Z,93.6154
2023-04-09T04:34:52.425Z,92.7692
2023-04-09T04:35:54.144Z,90.8462
2023-04-09T04:36:55.633Z,87.9231
2023-04-09T04:37:57.399Z,94.0769
2023-04-09T04:38:59.067Z,92.4615
2023-04-09T04:40:00.666Z,97.1538
2023-04-09T04:41:02.306Z,96.6923
2023-04-09T04:42:03.947Z,92.3077
2023-04-09T04:43:05.665Z,97.2308
2023-04-09T04:44:07.311Z,92.6923
2023-04-09T04:45:09.052Z,97.0769
2023-04-09T04:46:10.622Z,92.0000
2023-04-09T04:47:12.244Z,95.1538
2023-04-09T04:48:13.917Z,99.6154
2023-04-09T04:49:16.324Z,94.6154
2023-04-09T04:50:17.256Z,97.2308
2023-04-09T04:51:18.841Z,94.3846
2023-04-09T04:52:20.475Z,99.2308
2023-04-09T04:53:22.139Z,97.2308
2023-04-09T04:54:23.842Z,95.9231
2023-04-09T04:55:26.505Z,94.6154
2023-04-09T04:56:27.114Z,94.9231
2023-04-09T04:57:28.939Z,99.1538
2023-04-09T04:58:30.423Z,101.4615
2023-04-09T04:59:32.200Z,100.0769
2023-04-09T05:00:33.734Z,100.6923
2023-04-09T05:01:35.418Z,94.8462
2023-04-09T05:02:37.186Z,99.9231
2023-04-09T05:03:38.779Z,98.4615
2023-04-09T05:04:40.392Z,96.7692
2023-04-09T05:05:42.002Z,98.9231
2023-04-09T05:06:43.662Z,102.8462
2023-04-09T05:07:45.306Z,98.8462
2023-04-09T05:08:47.009Z,100.1538
2023-04-09T05:09:48.626Z,107.5385
2023-04-09T05:10:50.220Z,106.0000
2023-04-09T05:11:51.930Z,106.5385
2023-04-09T05:12:53.611Z,107.6923
2023-04-09T05:13:55.186Z,110.3846
2023-04-09T05:14:56.986Z,106.0000
2023-04-09T05:15:58.630Z,108.6923
2023-04-09T05:17:00.216Z,110.5385
2023-04-09T05:18:01.925Z,111.2308
2023-04-09T05:19:03.528Z,113.2308
2023-04-09T05:20:05.949Z,112.6923
2023-04-09T05:21:07.457Z,112.1538
2023-04-09T05:22:08.464Z,112.3077
2023-04-09T05:23:10.082Z,114.2308
2023-04-09T05:24:11.737Z,115.3077
2023-04-09T05:25:13.410Z,115.3077
2023-04-09T05:26:14.995Z,115.2308
2023-04-09T05:27:16.722Z,116.8462
2023-04-09T05:28:18.434Z,115.3077
2023-04-09T05:29:20.058Z,107.9231
2023-04-09T05:30:21.724Z,111.2308
2023-04-09T05:31:23.257Z,106.6923
2023-04-09T05:32:25.221Z,111.0769
2023-04-09T05:33:26.679Z,115.3846
2023-04-09T05:34:28.265Z,114.9231
2023-04-09T05:35:29.983Z,118.6923
2023-04-09T05:36:31.577Z,120.3846
2023-04-09T05:37:33.499Z,125.4615
2023-04-09T05:38:34.965Z,122.2308
2023-04-09T05:39:37.502Z,122.2308
2023-04-09T05:40:38.298Z,120.0769
2023-04-09T05:41:39.857Z,120.5385
2023-04-09T05:42:41.537Z,119.6923
2023-04-09T05:43:43.439Z,123.5385
2023-04-09T05:44:44.857Z,123.0769
2023-04-09T05:45:46.718Z,118.1538
2023-04-09T05:46:48.189Z,125.7692
2023-04-09T05:47:49.824Z,126.1538
2023-04-09T05:48:51.595Z,127.2308
2023-04-09T05:49:53.246Z,128.3077
2023-04-09T05:50:55.841Z,125.6923
2023-04-09T05:51:56.517Z,124.5385
2023-04-09T05:52:58.191Z,124.0000
2023-04-09T05:53:59.858Z,136.2308
2023-04-09T05:55:01.492Z,133.5385
2023-04-09T05:56:03.126Z,134.3077
2023-04-09T05:57:04.811Z,137.6154
2023-04-09T05:58:06.499Z,130.3846
2023-04-09T05:59:07.995Z,135.5385
2023-04-09T06:00:10.102Z,138.2308
2023-04-09T06:01:11.356Z,138.6154
2023-04-09T06:02:13.004Z,133.6154
2023-04-09T06:03:14.777Z,133.7692
2023-04-09T06:04:16.406Z,136.6154
2023-04-09T06:05:18.581Z,138.7692
2023-04-09T06:06:19.632Z,144.2308
2023-04-09T06:07:21.241Z,137.3077
2023-04-09T06:08:22.958Z,139.0000
2023-04-09T06:09:24.612Z,139.8462
2023-04-09T06:10:26.537Z,139.1538
2023-04-09T06:11:28.009Z,147.0000
2023-04-09T06:12:29.911Z,144.8462
2023-04-09T06:13:31.202Z,145.6154
2023-04-09T06:14:32.882Z,141.0000
2023-04-09T06:15:34.555Z,140.1538
2023-04-09T06:16:36.130Z,142.8462
2023-04-09T06:17:37.804Z,141.9231
2023-04-09T06:18:39.611Z,147.4615
2023-04-09T06:19:41.170Z,143.2308
2023-04-09T06:20:42.911Z,149.4615
2023-04-09T06:21:44.297Z,143.6923
2023-04-09T06:22:45.987Z,146.2308
2023-04-09T06:23:47.642Z,151.8462
2023-04-09T06:24:49.279Z,150.4615
2023-04-09T06:25:50.972Z,147.3846
2023-04-09T06:26:52.607Z,146.8462
2023-04-09T06:27:54.212Z,147.8462
2023-04-09T06:28:55.877Z,149.1538
2023-04-09T06:29:57.550Z,153.4615
2023-04-09T06:30:59.300Z,150.7692
2023-04-09T06:32:00.786Z,148.8462
2023-04-09T06:33:02.572Z,150.3077
2023-04-09T06:34:04.103Z,151.6923
2023-04-09T06:35:05.826Z,151.9231
2023-04-09T06:36:08.484Z,158.5385
2023-04-09T06:37:09.021Z,154.5385
2023-04-09T06:38:11.362Z,150.7692
2023-04-09T06:39:13.168Z,154.6923
2023-04-09T06:40:14.071Z,156.4615
2023-04-09T06:41:15.930Z,154.7692
2023-04-09T06:42:17.373Z,159.0769
2023-04-09T06:43:18.964Z,158.0769
2023-04-09T06:44:20.670Z,155.4615
2023-04-09T06:45:22.247Z,157.3077
2023-04-09T06:46:24.033Z,158.0000
2023-04-09T06:47:25.621Z,155.7692
2023-04-09T06:48:27.930Z,157.0769
2023-04-09T06:49:28.893Z,159.8462
2023-04-09T06:50:30.557Z,161.2308
2023-04-09T06:51:32.541Z,153.5385
2023-04-09T06:52:33.937Z,156.0769
2023-04-09T06:53:35.519Z,157.3846
2023-04-09T06:54:37.991Z,158.9231
2023-04-09T06:55:38.885Z,166.7692
2023-04-09T06:56:40.962Z,161.7692
2023-04-09T06:57:42.143Z,158.0000
2023-04-09T06:58:43.837Z,160.5385
2023-04-09T06:59:45.486Z,158.8462
2023-04-09T07:00:47.089Z,160.5385
2023-04-09T07:01:49.385Z,164.3077
2023-04-09T07:02:50.673Z,160.6923
2023-04-09T07:03:52.625Z,161.8462
2023-04-09T07:04:53.729Z,162.2308
2023-04-09T07:05:55.432Z,163.4615
2023-04-09T07:06:58.150Z,167.8462
2023-04-09T07:07:58.703Z,166.0000
2023-04-09T07:09:00.461Z,164.1538
2023-04-09T07:10:02.019Z,163.0769
2023-04-09T07:11:03.669Z,163.3846
2023-04-09T07:12:05.386Z,166.5385
2023-04-09T07:13:07.495Z,172.5385
2023-04-09T07:14:08.625Z,169.7692
2023-04-09T07:15:10.318Z,170.3846
2023-04-09T07:16:11.943Z,166.6154
2023-04-09T07:17:13.634Z,169.5385
2023-04-09T07:18:15.265Z,170.3846
2023-04-09T07:19:16.777Z,172.0769
2023-04-09T07:20:18.566Z,168.0000
2023-04-09T07:21:20.165Z,166.5385
2023-04-09T07:22:22.128Z,171.0769
2023-04-09T07:23:23.577Z,169.5385
2023-04-09T07:24:25.301Z,174.2308
2023-04-09T07:25:26.778Z,174.8462
2023-04-09T07:26:28.509Z,172.6154
2023-04-09T07:27:30.101Z,173.7692
2023-04-09T07:28:31.757Z,170.9231
2023-04-09T07:29:33.586Z,174.4615
2023-04-09T07:30:35.013Z,176.9231
2023-04-09T07:31:36.619Z,176.3846
2023-04-09T07:32:38.444Z,177.6154
2023-04-09T07:33:39.957Z,176.6923
2023-04-09T07:34:41.597Z,176.3077
2023-04-09T07:35:43.216Z,176.1538
2023-04-09T07:36:44.954Z,178.4615
2023-04-09T07:37:47.003Z,178.3846
2023-04-09T07:38:48.551Z,178.9231
2023-04-09T07:39:49.888Z,172.6154
2023-04-09T07:40:51.902Z,174.0000
2023-04-09T07:41:53.148Z,173.6923
2023-04-09T07:42:54.834Z,177.0769
2023-04-09T07:43:56.565Z,176.3846
2023-04-09T07:44:58.250Z,174.3077
2023-04-09T07:45:59.853Z,172.1538
2023-04-09T07:47:01.557Z,169.7692
2023-04-09T07:48:03.510Z,171.5385
2023-04-09T07:49:04.943Z,178.5385
2023-04-09T07:50:06.351Z,177.6923
2023-04-09T07:51:08.934Z,171.7692
2023-04-09T07:52:09.666Z,167.4615
2023-04-09T07:53:12.004Z,167.9231
2023-04-09T07:54:13.094Z,172.5385
2023-04-09T07:55:15.154Z,176.1538
2023-04-09T07:56:16.223Z,173.7692
2023-04-09T07:57:17.869Z,169.0000
2023-04-09T07:58:19.613Z,167.6923
2023-04-09T07:59:21.217Z,164.8462
2023-04-09T08:00:22.856Z,172.0769
2023-04-09T08:01:24.508Z,177.1538
2023-04-09T08:02:26.364Z,172.4615
2023-04-09T08:03:28.115Z,166.0769
2023-04-09T08:04:29.487Z,166.3077
2023-04-09T08:05:31.142Z,168.6154
2023-04-09T08:06:32.737Z,171.6923
2023-04-09T08:07:34.482Z,170.3846
2023-04-09T08:08:36.103Z,167.5385
2023-04-09T08:09:37.761Z,159.6923
2023-04-09T08:10:39.368Z,166.0769
2023-04-09T08:11:40.984Z,169.5385
2023-04-09T08:12:42.706Z,170.8462
2023-04-09T08:13:44.622Z,170.0000
2023-04-09T08:14:45.940Z,165.7692
2023-04-09T08:15:47.635Z,158.1538
2023-04-09T08:16:49.372Z,167.2308
2023-04-09T08:17:51.497Z,167.7692
2023-04-09T08:18:52.932Z,171.7692
2023-04-09T08:19:54.586Z,163.7692
2023-04-09T08:20:55.839Z,165.2308
2023-04-09T08:21:57.567Z,157.1538
2023-04-09T08:22:59.207Z,161.8462
2023-04-09T08:24:00.833Z,165.0000
2023-04-09T08:25:03.537Z,168.5385
2023-04-09T08:26:04.073Z,159.3077
2023-04-09T08:27:05.748Z,158.7692
2023-04-09T08:28:07.410Z,162.1538
2023-04-09T08:29:09.109Z,165.9231
2023-04-09T08:30:10.730Z,167.1538
2023-04-09T08:31:12.448Z,165.1538
2023-04-09T08:32:14.045Z,162.6923
2023-04-09T08:33:15.641Z,160.9231
2023-04-09T08:34:17.584Z,162.6923
2023-04-09T08:35:19.058Z,161.4615
2023-04-09T08:36:21.593Z,166.6923
2023-04-09T08:37:22.419Z,167.0769
2023-04-09T08:38:24.094Z,160.0000
2023-04-09T08:39:25.792Z,159.5385
2023-04-09T08:40:27.581Z,160.4615
2023-04-09T08:41:28.944Z,166.1538
2023-04-09T08:42:30.545Z,165.0000
2023-04-09T08:43:52.531Z,162.2308
2023-04-09T08:44:33.963Z,161.7500
2023-04-09T08:45:35.604Z,161.0000
2023-04-09T08:46:37.147Z,162.4615
2023-04-09T08:47:38.934Z,164.7692
2023-04-09T08:48:40.586Z,166.9231
2023-04-09T08:49:43.034Z,168.8462
2023-04-09T08:50:43.767Z,164.3846
2023-04-09T08:51:45.450Z,160.9231
2023-04-09T08:52:47.132Z,159.6154
2023-04-09T08:53:48.723Z,166.0000
2023-04-09T08:54:50.447Z,170.3077
2023-04-09T08:55:53.152Z,170.7692
2023-04-09T08:56:53.812Z,178.1538
2023-04-09T08:57:56.094Z,180.2308
2023-04-09T08:58:57.139Z,188.6154
2023-04-09T08:59:59.121Z,193.2308
2023-04-09T09:01:00.488Z,193.3846
2023-04-09T09:02:02.087Z,188.4615
2023-04-09T09:03:03.824Z,186.3077
2023-04-09T09:04:05.380Z,188.0769
2023-04-09T09:05:07.163Z,191.9231
2023-04-09T09:06:08.646Z,194.8462
2023-04-09T09:07:10.376Z,198.1538
2023-04-09T09:08:12.607Z,190.5385
2023-04-09T09:09:13.576Z,178.6923
2023-04-09T09:10:15.714Z,180.7692
2023-04-09T09:11:16.933Z,176.3846
2023-04-09T09:12:18.654Z,181.4615
2023-04-09T09:13:20.266Z,177.6154
2023-04-09T09:14:21.947Z,174.5385
2023-04-09T09:15:23.714Z,167.5385
2023-04-09T09:16:25.187Z,180.0769
2023-04-09T09:17:26.947Z,177.9231
2023-04-09T09:18:28.521Z,185.2308
2023-04-09T09:19:30.656Z,178.5385
2023-04-09T09:20:32.326Z,171.6923
2023-04-09T09:21:33.591Z,174.4615
2023-04-09T09:22:35.148Z,175.2308
2023-04-09T09:23:36.880Z,173.0769
2023-04-09T09:24:38.494Z,183.6154
2023-04-09T09:25:40.128Z,182.0769
2023-04-09T09:26:41.850Z,177.2308
2023-04-09T09:27:43.402Z,177.4615
2023-04-09T09:28:45.050Z,176.3846
2023-04-09T09:29:46.714Z,178.2308
2023-04-09T09:30:49.526Z,181.6154
2023-04-09T09:31:50.079Z,175.7692
2023-04-09T09:32:51.765Z,169.1538
2023-04-09T09:33:53.308Z,174.4615
2023-04-09T09:34:54.874Z,176.2308
2023-04-09T09:35:56.730Z,180.6154
2023-04-09T09:36:58.268Z,182.3846
2023-04-09T09:37:59.954Z,177.0769
2023-04-09T09:39:01.586Z,173.4615
2023-04-09T09:40:03.180Z,170.9231
2023-04-09T09:41:04.878Z,180.5385
2023-04-09T09:42:06.482Z,182.1538
2023-04-09T09:43:08.205Z,183.6154
2023-04-09T09:44:09.701Z,176.5385
2023-04-09T09:45:11.454Z,176.1538
2023-04-09T09:46:13.231Z,176.6923
2023-04-09T09:47:14.836Z,183.2308
2023-04-09T09:48:16.501Z,183.9231
2023-04-09T09:49:18.112Z,186.0000
2023-04-09T09:50:19.693Z,178.1538
2023-04-09T09:51:21.394Z,174.0769
2023-04-09T09:52:23.084Z,176.6923
2023-04-09T09:53:24.665Z,183.4615
2023-04-09T09:54:26.365Z,183.7692
2023-04-09T09:55:28.144Z,174.6923
2023-04-09T09:56:29.792Z,174.6154
2023-04-09T09:57:31.421Z,169.2308
2023-04-09T09:58:33.094Z,172.5385
2023-04-09T09:59:34.674Z,183.3846
2023-04-09T10:00:36.359Z,177.3846
2023-04-09T10:01:38.148Z,177.3077
2023-04-09T10:02:39.699Z,174.0000
2023-04-09T10:03:41.372Z,173.7692
2023-04-09T10:04:43.068Z,177.1538
2023-04-09T10:05:44.583Z,179.2308
2023-04-09T10:06:46.354Z,181.9231
2023-04-09T10:07:47.885Z,173.5385
2023-04-09T10:08:49.710Z,173.7692
2023-04-09T10:09:51.214Z,174.6154
2023-04-09T10:10:52.991Z,177.7692
2023-04-09T10:11:54.670Z,182.6154
2023-04-09T10:12:56.476Z,181.4615
2023-04-09T10:13:57.795Z,177.6923
2023-04-09T10:14:59.510Z,173.0769
2023-04-09T10:16:01.144Z,178.2308
2023-04-09T10:17:02.856Z,179.6154
2023-04-09T10:18:04.475Z,181.8462
2023-04-09T10:19:06.075Z,183.0769
2023-04-09T10:20:07.722Z,179.6154
2023-04-09T10:21:09.369Z,177.9231
2023-04-09T10:22:11.052Z,181.3846
2023-04-09T10:23:13.215Z,185.6154
2023-04-09T10:24:14.278Z,186.7692
2023-04-09T10:25:15.984Z,184.4615
2023-04-09T10:26:17.716Z,180.6154
2023-04-09T10:27:19.390Z,177.5385
2023-04-09T10:28:20.963Z,179.1538
2023-04-09T10:29:22.650Z,183.4615
2023-04-09T10:30:24.220Z,187.7692
2023-04-09T10:31:25.908Z,184.3846
2023-04-09T10:32:28.604Z,175.1538
2023-04-09T10:33:29.245Z,176.1538
2023-04-09T10:34:30.939Z,173.0000
2023-04-09T10:35:32.475Z,182.7692
2023-04-09T10:36:34.165Z,186.1538
2023-04-09T10:37:35.873Z,189.8462
2023-04-09T10:38:37.471Z,184.9231
2023-04-09T10:39:39.161Z,177.3846
2023-04-09T10:40:40.735Z,179.5385
2023-04-09T10:41:42.442Z,183.0769
2023-04-09T10:42:44.143Z,189.9231
2023-04-09T10:43:45.751Z,188.4615
2023-04-09T10:44:47.415Z,182.8462
2023-04-09T10:45:49.061Z,182.0000
2023-04-09T10:46:50.803Z,183.7692
2023-04-09T10:47:52.842Z,184.3846
2023-04-09T10:48:54.131Z,190.7692
2023-04-09T10:49:55.708Z,191.8462
2023-04-09T10:50:57.322Z,180.6923
2023-04-09T10:51:59.000Z,180.1538
2023-04-09T10:53:00.735Z,182.6154
2023-04-09T10:54:02.298Z,185.0000
2023-04-09T10:55:03.913Z,190.2308
2023-04-09T10:56:05.562Z,189.6154
2023-04-09T10:57:07.307Z,181.5385
2023-04-09T10:58:11.296Z,183.6154
2023-04-09T10:59:10.595Z,186.7692
2023-04-09T11:00:12.541Z,189.7692
2023-04-09T11:01:13.851Z,193.5385
2023-04-09T11:02:15.564Z,191.3846
2023-04-09T11:03:17.370Z,182.5385
2023-04-09T11:04:18.648Z,186.6154
2023-04-09T11:05:20.320Z,190.1538
2023-04-09T11:06:21.984Z,191.0769
2023-04-09T11:07:23.692Z,192.3846
2023-04-09T11:08:25.313Z,190.0000
2023-04-09T11:09:26.910Z,187.3846
2023-04-09T11:10:28.578Z,185.1538
2023-04-09T11:11:30.241Z,189.6923
2023-04-09T11:12:31.878Z,195.3846
2023-04-09T11:13:33.541Z,194.2308
2023-04-09T11:14:35.180Z,190.8462
2023-04-09T11:15:36.826Z,186.6154
2023-04-09T11:16:38.664Z,187.0769
2023-04-09T11:17:40.277Z,189.6923
2023-04-09T11:18:42.172Z,190.5385
2023-04-09T11:19:43.504Z,195.0769
2023-04-09T11:20:45.078Z,193.3077
2023-04-09T11:21:46.817Z,196.3077
2023-04-09T11:22:48.419Z,187.6923
2023-04-09T11:23:50.155Z,195.0000
2023-04-09T11:24:51.770Z,193.0000
2023-04-09T11:25:53.368Z,201.6154
2023-04-09T11:26:55.092Z,195.0769
2023-04-09T11:27:56.647Z,191.7692
2023-04-09T11:28:59.145Z,192.8462
2023-04-09T11:30:00.134Z,198.9231
2023-04-09T11:31:01.794Z,199.6154
2023-04-09T11:32:03.262Z,199.4615
2023-04-09T11:33:05.129Z,197.1538
2023-04-09T11:34:06.667Z,191.7692
2023-04-09T11:35:08.243Z,187.6154
2023-04-09T11:36:09.854Z,191.8462
2023-04-09T11:37:11.546Z,200.6923
2023-04-09T11:38:14.048Z,198.0000
2023-04-09T11:39:15.145Z,191.2308
2023-04-09T11:40:16.540Z,192.7692
2023-04-09T11:41:18.188Z,193.0769
2023-04-09T11:42:19.755Z,199.1538
2023-04-09T11:43:21.459Z,206.7692
2023-04-09T11:44:23.701Z,206.0769
2023-04-09T11:45:24.722Z,196.6154
2023-04-09T11:46:27.456Z,192.0769
2023-04-09T11:47:28.045Z,195.0769
2023-04-09T11:48:29.784Z,198.1538
2023-04-09T11:49:32.245Z,206.3846
2023-04-09T11:50:33.027Z,198.3846
2023-04-09T11:51:34.749Z,193.1538
2023-04-09T11:52:36.452Z,195.8462
2023-04-09T11:53:38.073Z,198.0000
2023-04-09T11:54:39.740Z,199.3077
2023-04-09T11:55:41.378Z,206.0769
2023-04-09T11:56:43.075Z,201.5385
2023-04-09T11:57:44.681Z,193.4615
2023-04-09T11:58:46.327Z,192.3846
2023-04-09T11:59:48.129Z,194.4615
2023-04-09T12:00:49.676Z,196.2308
2023-04-09T12:01:51.515Z,206.3846
2023-04-09T12:02:53.301Z,203.8462
2023-04-09T12:03:54.675Z,190.9231
2023-04-09T12:04:56.620Z,190.2308
2023-04-09T12:05:57.764Z,193.8462
2023-04-09T12:06:59.482Z,199.4615
2023-04-09T12:08:01.067Z,207.3077
2023-04-09T12:09:02.831Z,202.8462